Terminal Aerodrome Forecast
Issued by NWS

Home | Current Version | Previous Version | Text Only | Print | Product List | Glossary On
Versions: 1 2 3 4 5 6 7 8 9 10 11 12 13 14 15 16 17
513
FTUS45 KPSR 271904 AAA
TAFBLH
TAF AMD
KBLH 271904Z 2719/2818 04012KT P6SM SCT100 SCT250
      TEMPO 2719/2721 04015G25KT 6SM BLDU
     FM280200 VRB05KT P6SM FEW120=

USA.gov is the U.S. government's official web portal to all federal, state and local government web resources and services.